Time;durP1;ratioP1;P1;durP2;ratioP2;P2;SDS_P1;SDS_P2;PMS_P1;PMS_P2;Temp;Humidity;BMP_temperature;BMP_pressure;BME280_temperature;BME280_humidity;BME280_pressure;Samples;Min_cycle;Max_cycle;Signal;HPM_P1;HPM_P2
2023/03/05 00:00:13;;;;;;;;;2.50;2.50;;;;;21.54;37.44;102313.06;5035658;28;45373;-74
2023/03/05 00:02:39;;;;;;;;;3.00;3.00;;;;;21.54;37.28;102310.41;5031703;28;46164;-73
2023/03/05 00:05:05;;;;;;;;;3.00;3.00;;;;;21.52;37.80;102306.09;5034764;28;45405;-74
2023/03/05 00:07:31;;;;;;;;;3.00;3.00;;;;;21.52;38.00;102306.09;5035215;28;45391;-74
2023/03/05 00:10:02;;;;;;;;;5.00;3.00;;;;;21.52;37.59;102306.09;5035139;28;45484;-74
2023/03/05 00:12:28;;;;;;;;;3.00;3.00;;;;;21.52;37.82;102295.50;5031706;28;45533;-73
2023/03/05 00:14:53;;;;;;;;;3.00;3.00;;;;;21.47;35.33;102305.66;5034889;28;46264;-76
2023/03/05 00:17:19;;;;;;;;;4.50;4.00;;;;;21.40;35.96;102309.84;5035263;28;45440;-73
2023/03/05 00:19:44;;;;;;;;;4.00;4.00;;;;;21.34;36.77;102298.00;5035767;28;45547;-76
2023/03/05 00:22:09;;;;;;;;;4.50;4.00;;;;;21.38;36.65;102309.16;5035581;28;46472;-76
2023/03/05 00:24:35;;;;;;;;;4.25;3.75;;;;;21.38;36.77;102301.22;5035439;28;45453;-73
2023/03/05 00:27:00;;;;;;;;;3.67;3.67;;;;;21.37;36.80;102289.78;5034990;28;45370;-76
2023/03/05 00:29:26;;;;;;;;;3.25;2.75;;;;;21.36;36.73;102287.31;5036054;28;45388;-77
2023/03/05 00:31:52;;;;;;;;;2.75;2.75;;;;;21.35;36.68;102288.25;5034921;28;46987;-77
2023/03/05 00:34:18;;;;;;;;;3.75;3.00;;;;;21.35;36.55;102290.91;5038369;28;45236;-75
2023/03/05 00:36:49;;;;;;;;;5.75;3.25;;;;;21.34;36.55;102289.25;5035931;28;45379;-76
2023/03/05 00:39:17;;;;;;;;;4.75;3.75;;;;;21.34;36.38;102281.31;5029122;28;45514;-77
2023/03/05 00:41:43;;;;;;;;;2.00;2.00;;;;;21.31;36.32;102274.50;5032457;28;45368;-77
2023/03/05 00:44:08;;;;;;;;;3.00;3.00;;;;;21.31;36.17;102276.28;5035364;28;45331;-75
2023/03/05 00:46:34;;;;;;;;;2.00;2.00;;;;;21.29;36.17;102279.06;5035098;28;45427;-77
2023/03/05 00:49:00;;;;;;;;;2.50;2.00;;;;;21.28;36.00;102272.97;5031403;28;45497;-76
2023/03/05 00:51:26;;;;;;;;;4.00;4.00;;;;;21.27;36.26;102267.78;5033798;28;45407;-77
2023/03/05 00:53:51;;;;;;;;;2.50;2.50;;;;;21.25;35.89;102267.94;5035930;28;45386;-76
2023/03/05 00:56:18;;;;;;;;;3.00;3.00;;;;;21.24;36.06;102268.06;5023274;28;45432;-77
2023/03/05 00:58:43;;;;;;;;;3.00;2.00;;;;;21.24;35.74;102266.25;5024998;28;45451;-78
2023/03/05 01:01:08;;;;;;;;;4.50;2.75;;;;;21.14;35.83;102249.53;5028422;28;46617;-77
2023/03/05 01:03:34;;;;;;;;;3.50;2.75;;;;;21.21;35.37;102257.78;5034880;28;45372;-76
2023/03/05 01:06:02;;;;;;;;;4.00;4.00;;;;;21.21;35.40;102260.44;5034730;28;45347;-76
2023/03/05 01:08:28;;;;;;;;;5.25;4.25;;;;;21.18;35.67;102249.13;5028154;28;45471;-77
2023/03/05 01:10:53;;;;;;;;;3.00;3.00;;;;;21.19;35.58;102260.53;5036903;28;45573;-76
2023/03/05 01:13:19;;;;;;;;;3.00;3.00;;;;;21.18;35.46;102258.91;5028298;28;45407;-76
2023/03/05 01:15:46;;;;;;;;;3.00;3.00;;;;;21.16;35.76;102252.88;5033331;28;45379;-76
2023/03/05 01:18:12;;;;;;;;;2.00;2.00;;;;;21.15;35.38;102251.22;5040079;28;45441;-77
2023/03/05 01:20:37;;;;;;;;;2.00;2.00;;;;;21.13;35.63;102256.63;5039693;28;45298;-76
2023/03/05 01:23:03;;;;;;;;;3.00;3.00;;;;;21.13;35.85;102253.19;5039201;28;45393;-77
2023/03/05 01:25:28;;;;;;;;;1.50;1.50;;;;;21.11;35.61;102249.81;5040192;28;45393;-76
2023/03/05 01:27:53;;;;;;;;;2.00;2.00;;;;;21.06;35.78;102242.31;5040582;28;45331;-76
2023/03/05 01:30:19;;;;;;;;;3.00;3.00;;;;;21.03;35.67;102235.47;5037718;28;46044;-76
2023/03/05 01:32:45;;;;;;;;;2.00;2.00;;;;;21.04;36.18;102233.66;5029649;28;45287;-77
2023/03/05 01:35:17;;;;;;;;;2.00;2.00;;;;;21.07;35.52;102230.75;5039266;28;45307;-77
2023/03/05 01:37:42;;;;;;;;;3.75;3.00;;;;;21.04;35.78;102229.22;5039447;28;45434;-76
2023/03/05 01:40:14;;;;;;;;;3.50;2.25;;;;;21.04;35.48;102226.56;5037537;28;45484;-76
2023/03/05 01:42:39;;;;;;;;;2.00;2.00;;;;;21.03;35.61;102224.91;5027268;28;45299;-76
2023/03/05 01:45:14;;;;;;;;;2.00;2.00;;;;;21.03;35.95;102224.06;5019124;28;45372;-76
2023/03/05 01:47:39;;;;;;;;;3.00;2.00;;;;;20.96;35.70;102211.38;5039166;28;45442;-77
2023/03/05 01:50:08;;;;;;;;;3.50;2.00;;;;;21.02;35.87;102209.16;5038499;28;45782;-76
2023/03/05 01:52:38;;;;;;;;;2.50;2.50;;;;;20.99;35.53;102207.59;5014499;28;45463;-75
2023/03/05 01:55:15;;;;;;;;;2.00;2.00;;;;;20.99;35.73;102204.13;5037319;28;45327;-74
2023/03/05 01:57:50;;;;;;;;;5.50;2.25;;;;;20.99;35.44;102204.13;5037587;28;45414;-77
2023/03/05 02:00:19;;;;;;;;;3.00;3.00;;;;;20.96;35.59;102203.44;5031676;28;46268;-76
2023/03/05 02:02:47;;;;;;;;;2.00;2.00;;;;;20.91;35.69;102194.22;5037346;28;45306;-77
2023/03/05 02:05:18;;;;;;;;;2.00;2.00;;;;;20.89;35.67;102190.91;5037752;28;45223;-74
2023/03/05 02:07:44;;;;;;;;;1.00;1.00;;;;;20.95;35.89;102193.81;5037707;28;45779;-76
2023/03/05 02:10:17;;;;;;;;;3.00;3.00;;;;;20.95;35.53;102190.31;5029131;28;46253;-77
2023/03/05 02:12:42;;;;;;;;;3.00;3.00;;;;;20.94;35.31;102176.28;5025877;28;45518;-74
2023/03/05 02:15:08;;;;;;;;;2.25;2.25;;;;;20.94;35.44;102183.38;5030690;28;45680;-76
2023/03/05 02:17:34;;;;;;;;;2.25;2.00;;;;;20.95;35.17;102182.38;5032848;28;45388;-77
2023/03/05 02:20:10;;;;;;;;;3.00;3.00;;;;;20.94;35.42;102186.88;5038428;28;45381;-76
2023/03/05 02:22:35;;;;;;;;;2.00;2.00;;;;;20.90;35.56;102166.09;5037747;28;45350;-76
2023/03/05 02:25:01;;;;;;;;;2.50;2.50;;;;;20.95;35.29;102163.88;5036387;28;45300;-76
2023/03/05 02:27:33;;;;;;;;;2.50;2.50;;;;;20.94;35.73;102163.06;5037839;28;45441;-75
2023/03/05 02:30:00;;;;;;;;;1.75;1.75;;;;;20.95;35.66;102153.28;5037151;28;46306;-77
2023/03/05 02:32:25;;;;;;;;;2.25;2.00;;;;;20.92;35.35;102145.66;5033568;28;45264;-77
2023/03/05 02:34:51;;;;;;;;;1.75;1.75;;;;;20.93;35.32;102144.66;5037305;28;45269;-75
2023/03/05 02:37:16;;;;;;;;;3.75;3.00;;;;;20.93;35.25;102148.13;5036863;28;45413;-75
2023/03/05 02:39:41;;;;;;;;;3.33;2.00;;;;;20.92;35.42;102151.75;5026649;28;45284;-76
2023/03/05 02:42:07;;;;;;;;;2.00;2.00;;;;;20.92;35.19;102146.47;5030240;28;45226;-76
2023/03/05 02:44:33;;;;;;;;;3.00;1.00;;;;;20.92;35.50;102143.81;5030888;28;45523;-75
2023/03/05 02:46:58;;;;;;;;;4.25;2.00;;;;;20.93;35.24;102152.59;5037385;28;45434;-76
2023/03/05 02:49:23;;;;;;;;;3.00;2.00;;;;;20.90;35.48;102139.63;5036661;28;46306;-75
2023/03/05 02:51:48;;;;;;;;;3.75;2.00;;;;;20.90;35.34;102139.63;5033814;28;45375;-77
2023/03/05 02:54:14;;;;;;;;;2.00;2.00;;;;;20.87;35.26;102127.53;5036291;28;45710;-75
2023/03/05 02:56:39;;;;;;;;;1.75;1.75;;;;;20.82;35.51;102109.44;5015672;28;45494;-75
2023/03/05 02:59:05;;;;;;;;;1.75;1.00;;;;;20.80;35.27;102107.91;5023852;28;45983;-75
2023/03/05 03:01:30;;;;;;;;;2.50;2.25;;;;;20.86;35.42;102115.28;5036010;28;45360;-74
2023/03/05 03:03:55;;;;;;;;;2.75;2.75;;;;;20.88;35.29;102115.13;5034958;28;45940;-75
2023/03/05 03:06:21;;;;;;;;;2.75;2.75;;;;;20.87;35.25;102116.94;5036501;28;45436;-75
2023/03/05 03:08:46;;;;;;;;;2.00;2.00;;;;;20.87;35.54;102108.19;5032001;28;45401;-75
2023/03/05 03:11:12;;;;;;;;;1.50;1.50;;;;;20.88;35.42;102115.13;5035792;28;45498;-76
2023/03/05 03:13:38;;;;;;;;;2.00;2.00;;;;;20.86;35.23;102110.00;5036624;28;45380;-74
2023/03/05 03:16:06;;;;;;;;;2.50;2.00;;;;;20.85;35.13;102101.22;5036333;28;45472;-75
2023/03/05 03:18:32;;;;;;;;;1.25;1.25;;;;;20.85;35.50;102097.75;5036275;28;46165;-75
2023/03/05 03:20:58;;;;;;;;;2.00;1.50;;;;;20.77;35.39;102082.56;5036214;28;45379;-76
2023/03/05 03:23:23;;;;;;;;;2.00;2.00;;;;;20.76;35.50;102080.94;5036166;28;45425;-76
2023/03/05 03:25:49;;;;;;;;;2.00;2.00;;;;;20.77;35.56;102085.22;5036024;28;45425;-76
2023/03/05 03:28:14;;;;;;;;;2.25;1.75;;;;;20.83;35.41;102089.13;5036827;28;45986;-75
2023/03/05 03:30:39;;;;;;;;;2.33;2.00;;;;;20.82;35.51;102092.72;5031645;28;45415;-74
2023/03/05 03:33:04;;;;;;;;;2.00;2.00;;;;;20.79;35.20;102083.25;5029429;28;45438;-75
2023/03/05 03:35:30;;;;;;;;;1.75;1.00;;;;;20.80;35.39;102084.94;5036056;28;45462;-75
2023/03/05 03:37:55;;;;;;;;;2.00;2.00;;;;;20.82;35.42;102076.84;5014605;28;47167;-75
2023/03/05 03:40:20;;;;;;;;;2.00;2.00;;;;;20.80;35.52;102076.16;5020990;28;45363;-75
2023/03/05 03:42:46;;;;;;;;;2.00;2.00;;;;;20.69;35.08;102059.47;5030824;28;45295;-74
2023/03/05 03:45:12;;;;;;;;;1.00;1.00;;;;;20.81;35.13;102083.13;5035112;28;45385;-76
2023/03/05 03:47:37;;;;;;;;;3.67;2.33;;;;;20.80;35.22;102076.16;5025088;28;45755;-75
2023/03/05 03:50:03;;;;;;;;;3.00;1.00;;;;;20.80;35.30;102074.38;5034528;28;45533;-74
2023/03/05 03:52:29;;;;;;;;;5.00;3.00;;;;;20.76;35.15;102059.78;5031262;28;45472;-75
2023/03/05 03:55:00;;;;;;;;;2.25;2.25;;;;;20.80;35.22;102069.06;5030366;28;45486;-75
2023/03/05 03:57:26;;;;;;;;;3.00;3.00;;;;;20.81;34.90;102061.97;5028832;28;46364;-76
2023/03/05 03:59:51;;;;;;;;;2.00;2.00;;;;;20.81;35.30;102070.75;5035031;28;45437;-74
2023/03/05 04:02:17;;;;;;;;;2.00;2.00;;;;;20.82;35.14;102063.63;5035008;28;45521;-75
2023/03/05 04:04:42;;;;;;;;;2.00;2.00;;;;;20.82;34.94;102061.81;5035783;28;45335;-74
2023/03/05 04:07:08;;;;;;;;;2.33;1.00;;;;;20.82;35.04;102055.69;5035279;28;46858;-74
2023/03/05 04:09:33;;;;;;;;;2.00;1.50;;;;;20.82;34.95;102056.53;5036089;28;45492;-75
2023/03/05 04:11:58;;;;;;;;;2.00;1.00;;;;;20.77;34.94;102036.78;5036884;28;45391;-74
2023/03/05 04:14:25;;;;;;;;;2.00;2.00;;;;;20.82;35.02;102047.75;5035726;28;45493;-74
2023/03/05 04:16:50;;;;;;;;;2.00;2.00;;;;;20.81;35.21;102044.31;5033964;28;46270;-75
2023/03/05 04:19:16;;;;;;;;;1.00;1.00;;;;;20.81;34.73;102041.66;5034579;28;45434;-75
2023/03/05 04:21:41;;;;;;;;;3.00;1.00;;;;;20.77;35.35;102034.13;5035682;28;45371;-75
2023/03/05 04:24:07;;;;;;;;;2.00;2.00;;;;;20.80;35.18;102042.63;5035474;28;45842;-75
2023/03/05 04:26:33;;;;;;;;;2.25;2.25;;;;;20.80;35.14;102042.63;5035712;28;46184;-75
2023/03/05 04:28:58;;;;;;;;;2.67;2.00;;;;;20.80;35.13;102041.78;5013868;28;45599;-75
2023/03/05 04:31:23;;;;;;;;;5.25;2.25;;;;;20.79;35.15;102040.94;5028608;28;45373;-74
2023/03/05 04:33:49;;;;;;;;;1.75;1.50;;;;;20.79;34.97;102035.66;5035389;28;45446;-74
2023/03/05 04:36:14;;;;;;;;;3.67;2.67;;;;;20.79;34.87;102038.31;5034764;28;46111;-75
2023/03/05 04:38:40;;;;;;;;;3.00;3.00;;;;;20.78;34.84;102031.34;5034906;28;45338;-74
2023/03/05 04:41:05;;;;;;;;;2.25;2.00;;;;;20.78;34.84;102030.53;5027558;28;45482;-74
2023/03/05 04:43:30;;;;;;;;;5.25;3.00;;;;;20.78;34.95;102026.06;5016880;28;45328;-75
2023/03/05 04:45:56;;;;;;;;;2.00;1.67;;;;;20.78;35.32;102020.78;5035284;28;45354;-74
2023/03/05 04:48:21;;;;;;;;;3.00;2.00;;;;;20.78;35.16;102018.13;5024359;28;45440;-75
2023/03/05 04:50:47;;;;;;;;;2.00;2.00;;;;;20.71;34.84;102006.47;5035426;28;45346;-75
2023/03/05 04:53:12;;;;;;;;;2.00;2.00;;;;;20.75;35.14;102018.41;5038712;28;45446;-75
2023/03/05 04:55:37;;;;;;;;;2.00;2.00;;;;;20.76;34.89;102021.91;5027309;28;46291;-74
2023/03/05 04:58:03;;;;;;;;;2.00;1.33;;;;;20.74;34.99;102014.94;5016783;28;45258;-74
2023/03/05 05:00:29;;;;;;;;;1.33;1.33;;;;;20.72;34.92;102019.53;5030651;28;45383;-74
2023/03/05 05:02:54;;;;;;;;;2.50;1.50;;;;;20.77;34.90;102018.25;5037277;28;45329;-75
2023/03/05 05:05:23;;;;;;;;;1.00;1.00;;;;;20.73;35.00;102015.94;5037751;28;47072;-75
2023/03/05 05:07:49;;;;;;;;;2.50;2.50;;;;;20.75;34.99;102023.69;5037029;28;45329;-75
2023/03/05 05:10:15;;;;;;;;;1.00;1.00;;;;;20.75;34.74;102010.47;5031221;28;45234;-75
2023/03/05 05:12:41;;;;;;;;;2.00;2.00;;;;;20.69;34.83;102003.94;5026911;28;45532;-75
2023/03/05 05:15:07;;;;;;;;;2.25;2.25;;;;;20.73;34.71;102002.69;5031749;28;46116;-75
2023/03/05 05:17:33;;;;;;;;;2.00;2.00;;;;;20.74;35.13;102004.34;5036841;28;45449;-74
2023/03/05 05:20:00;;;;;;;;;2.00;2.00;;;;;20.76;34.81;102006.03;5035241;28;45593;-74
2023/03/05 05:22:27;;;;;;;;;1.00;1.00;;;;;20.75;35.00;102007.84;5037957;28;45562;-76
2023/03/05 05:24:52;;;;;;;;;3.00;2.00;;;;;20.73;34.84;102001.84;5038374;28;46327;-74
2023/03/05 05:27:18;;;;;;;;;2.00;2.00;;;;;20.71;34.87;101986.13;5038018;28;45478;-75
2023/03/05 05:29:45;;;;;;;;;2.25;2.25;;;;;20.75;34.85;101991.97;5027383;28;45399;-75
2023/03/05 05:32:11;;;;;;;;;1.00;1.00;;;;;20.71;35.01;101982.66;5037051;28;45407;-75
2023/03/05 05:34:36;;;;;;;;;1.25;1.25;;;;;20.76;34.92;101984.88;5037675;28;46843;-74
2023/03/05 05:37:01;;;;;;;;;3.00;3.00;;;;;20.76;34.92;101988.34;5037191;28;45506;-74
2023/03/05 05:39:26;;;;;;;;;2.00;2.00;;;;;20.76;34.88;101984.88;5038296;28;45293;-74
2023/03/05 05:41:52;;;;;;;;;2.00;2.00;;;;;20.76;34.69;101977.78;5030834;28;45557;-75
2023/03/05 05:44:18;;;;;;;;;2.00;1.75;;;;;20.77;34.96;101986.53;5038035;28;46313;-75
2023/03/05 05:46:43;;;;;;;;;2.00;2.00;;;;;20.68;34.61;101973.19;5037740;28;45446;-75
2023/03/05 05:49:09;;;;;;;;;2.00;2.00;;;;;20.76;35.22;101982.22;5031649;28;45465;-75
2023/03/05 05:51:34;;;;;;;;;3.00;3.00;;;;;20.76;35.05;101985.72;5037896;28;45312;-75
2023/03/05 05:53:59;;;;;;;;;3.00;2.00;;;;;20.76;34.66;101984.88;5037308;28;46160;-74
2023/03/05 05:56:25;;;;;;;;;3.25;2.00;;;;;20.72;34.72;101977.22;5024669;28;45634;-75
2023/03/05 05:58:50;;;;;;;;;2.75;1.25;;;;;20.74;34.77;101980.53;5037741;28;45765;-74
2023/03/05 06:01:20;;;;;;;;;2.67;2.33;;;;;20.75;34.89;101984.03;5037488;28;45446;-75
2023/03/05 06:03:46;;;;;;;;;2.00;2.00;;;;;20.74;34.74;101972.59;5036855;28;45381;-75
2023/03/05 06:06:14;;;;;;;;;1.67;1.67;;;;;20.74;35.00;101972.59;5025722;28;45339;-76
2023/03/05 06:08:40;;;;;;;;;1.75;1.75;;;;;20.74;34.67;101977.91;5030298;28;45359;-75
2023/03/05 06:11:06;;;;;;;;;2.00;2.00;;;;;20.67;34.73;101957.47;5036053;28;46218;-74
2023/03/05 06:13:33;;;;;;;;;2.00;2.00;;;;;20.72;34.77;101973.72;5037661;28;46050;-75
2023/03/05 06:16:01;;;;;;;;;2.75;2.75;;;;;20.73;34.76;101972.78;5037076;28;45406;-74
2023/03/05 06:18:26;;;;;;;;;1.67;1.67;;;;;20.72;35.02;101971.09;5018249;28;45391;-74
2023/03/05 06:20:55;;;;;;;;;2.75;2.00;;;;;20.72;34.63;101979.88;5036877;28;45391;-75
2023/03/05 06:23:20;;;;;;;;;2.00;2.00;;;;;20.71;34.70;101974.72;5037411;28;46190;-74
2023/03/05 06:25:46;;;;;;;;;3.25;2.00;;;;;20.72;34.61;101969.28;5037082;28;45252;-75
2023/03/05 06:28:11;;;;;;;;;1.25;1.25;;;;;20.72;34.92;101968.44;5037952;28;45435;-74
2023/03/05 06:30:36;;;;;;;;;1.75;1.75;;;;;20.72;34.87;101965.78;5036794;28;45313;-74
2023/03/05 06:33:02;;;;;;;;;1.00;1.00;;;;;20.62;34.82;101949.97;5036518;28;45370;-75
2023/03/05 06:35:27;;;;;;;;;3.00;1.75;;;;;20.71;34.76;101966.78;5034979;28;45332;-75
2023/03/05 06:37:52;;;;;;;;;2.00;2.00;;;;;20.66;34.88;101956.63;5036846;28;45416;-75
2023/03/05 06:40:18;;;;;;;;;1.00;1.00;;;;;20.71;34.87;101966.78;5034750;28;45554;-74
2023/03/05 06:42:43;;;;;;;;;3.00;2.00;;;;;20.71;34.56;101970.25;5037293;28;45264;-74
2023/03/05 06:45:09;;;;;;;;;3.00;2.00;;;;;20.71;34.89;101964.16;5037382;28;45403;-77
2023/03/05 06:47:34;;;;;;;;;2.25;2.00;;;;;20.71;34.85;101966.78;5036607;28;45385;-75
2023/03/05 06:50:00;;;;;;;;;1.25;1.00;;;;;20.71;34.91;101969.44;5036555;28;45509;-75
2023/03/05 06:52:25;;;;;;;;;3.00;3.00;;;;;20.69;34.53;101966.91;5033726;28;46258;-76
2023/03/05 06:54:54;;;;;;;;;2.00;2.00;;;;;20.68;34.57;101959.97;5031538;28;45393;-74
2023/03/05 06:57:20;;;;;;;;;1.00;1.00;;;;;20.71;34.75;101964.16;5030950;28;45458;-76
2023/03/05 06:59:45;;;;;;;;;3.00;2.00;;;;;20.71;34.52;101966.78;5032109;28;45287;-75
2023/03/05 07:02:12;;;;;;;;;4.50;2.25;;;;;20.72;34.77;101968.44;5035887;28;45506;-75
2023/03/05 07:04:38;;;;;;;;;2.25;2.00;;;;;20.71;34.78;101966.78;5036838;28;45417;-75
2023/03/05 07:07:03;;;;;;;;;1.00;1.00;;;;;20.72;34.68;101971.94;5037080;28;45386;-75
2023/03/05 07:09:29;;;;;;;;;3.75;3.00;;;;;20.71;34.54;101964.16;5037244;28;45232;-76
2023/03/05 07:11:55;;;;;;;;;1.75;1.75;;;;;20.64;34.76;101948.00;5036982;28;47230;-75
2023/03/05 07:14:20;;;;;;;;;1.00;1.00;;;;;20.73;34.78;101964.84;5034895;28;45442;-76
2023/03/05 07:16:45;;;;;;;;;2.25;2.25;;;;;20.73;34.79;101962.19;5031188;28;45549;-74
2023/03/05 07:19:11;;;;;;;;;1.75;1.75;;;;;20.73;34.53;101964.84;5034216;28;45269;-75
2023/03/05 07:21:36;;;;;;;;;2.50;2.00;;;;;20.72;34.69;101968.44;5036998;28;47108;-76
2023/03/05 07:24:03;;;;;;;;;2.00;2.00;;;;;20.71;34.79;101964.97;5035920;28;45422;-75
2023/03/05 07:26:29;;;;;;;;;1.00;1.00;;;;;20.71;34.45;101956.22;5023106;28;45296;-75
2023/03/05 07:28:55;;;;;;;;;1.00;1.00;;;;;20.71;34.48;101954.38;5035964;28;45422;-76
2023/03/05 07:31:25;;;;;;;;;2.00;2.00;;;;;20.71;34.26;101956.22;5035631;28;45282;-75
2023/03/05 07:33:51;;;;;;;;;1.00;1.00;;;;;20.61;34.68;101935.91;5035921;28;45527;-75
2023/03/05 07:36:17;;;;;;;;;1.75;1.75;;;;;20.70;35.10;101951.91;5031726;28;45406;-75
2023/03/05 07:38:43;;;;;;;;;2.75;1.75;;;;;20.71;34.65;101954.38;5036000;28;45715;-76
2023/03/05 07:41:18;;;;;;;;;1.50;1.50;;;;;20.71;34.80;101948.28;5017865;28;46089;-75
2023/03/05 07:43:47;;;;;;;;;2.00;1.50;;;;;20.70;34.66;101947.44;5036147;28;45509;-75
2023/03/05 07:46:15;;;;;;;;;2.00;2.00;;;;;20.69;34.89;101945.75;5036102;28;45717;-76
2023/03/05 07:48:40;;;;;;;;;1.50;1.50;;;;;20.70;34.62;101941.31;5034772;28;45408;-75
2023/03/05 07:51:14;;;;;;;;;2.00;2.00;;;;;20.66;34.80;101938.09;5028752;28;46161;-75
2023/03/05 07:53:41;;;;;;;;;2.75;2.00;;;;;20.70;34.43;101939.50;5024934;28;45410;-76
2023/03/05 07:56:07;;;;;;;;;2.25;2.25;;;;;20.65;34.68;101925.88;5020832;28;45304;-77
2023/03/05 07:58:32;;;;;;;;;1.25;1.25;;;;;20.69;34.80;101940.47;5035462;28;45315;-76
2023/03/05 08:00:58;;;;;;;;;2.00;1.00;;;;;20.70;34.51;101943.97;5030937;28;45395;-75
2023/03/05 08:03:23;;;;;;;;;1.50;1.25;;;;;20.69;34.54;101945.75;5035711;28;45370;-76
2023/03/05 08:05:48;;;;;;;;;1.25;1.25;;;;;20.68;34.48;101940.63;5035597;28;45596;-75
2023/03/05 08:08:15;;;;;;;;;1.25;1.25;;;;;20.69;34.67;101940.47;5036105;28;45433;-76
2023/03/05 08:10:40;;;;;;;;;2.00;2.00;;;;;20.69;34.43;101942.28;5034845;28;45273;-75
2023/03/05 08:13:06;;;;;;;;;2.00;2.00;;;;;20.68;34.62;101940.63;5035109;28;45288;-73
2023/03/05 08:15:31;;;;;;;;;1.25;1.25;;;;;20.67;34.50;101939.78;5035843;28;45423;-76
2023/03/05 08:17:58;;;;;;;;;3.00;2.00;;;;;20.67;34.76;101945.06;5035719;28;45461;-75
2023/03/05 08:20:23;;;;;;;;;2.00;1.00;;;;;20.69;34.69;101944.91;5016840;28;46152;-74
2023/03/05 08:22:48;;;;;;;;;3.00;2.00;;;;;20.68;34.74;101938.81;5035566;28;45288;-76
2023/03/05 08:25:14;;;;;;;;;1.75;1.75;;;;;20.67;34.39;101942.44;5035161;28;45337;-76
2023/03/05 08:27:42;;;;;;;;;1.50;1.50;;;;;20.69;34.73;101944.91;5035314;28;45470;-76
2023/03/05 08:30:11;;;;;;;;;3.25;1.00;;;;;20.68;34.63;101941.47;5034617;28;46723;-73
2023/03/05 08:32:36;;;;;;;;;1.25;1.25;;;;;20.69;34.37;101939.63;5035267;28;45415;-73
2023/03/05 08:35:03;;;;;;;;;2.25;1.00;;;;;20.70;34.62;101941.31;5029881;28;45371;-75
2023/03/05 08:37:29;;;;;;;;;1.25;1.00;;;;;20.65;34.33;101931.19;5034757;28;45390;-75
2023/03/05 08:39:55;;;;;;;;;4.00;2.50;;;;;20.66;34.56;101932.81;5035119;28;45367;-75
2023/03/05 08:42:20;;;;;;;;;2.00;2.00;;;;;20.69;34.25;101931.69;5034594;28;45388;-75
2023/03/05 08:44:46;;;;;;;;;1.25;1.25;;;;;20.70;34.39;101934.22;5035244;28;45502;-75
2023/03/05 08:47:11;;;;;;;;;1.67;1.00;;;;;20.70;34.66;101936.88;5029264;28;45315;-75
2023/03/05 08:49:36;;;;;;;;;1.75;1.75;;;;;20.71;34.40;101935.88;5031046;28;45326;-75
2023/03/05 08:52:02;;;;;;;;;2.00;2.00;;;;;20.71;34.34;101938.50;5026747;28;45308;-75
2023/03/05 08:54:27;;;;;;;;;1.00;1.00;;;;;20.68;34.39;101925.59;5037193;28;45514;-75
2023/03/05 08:56:52;;;;;;;;;2.00;2.00;;;;;20.71;34.35;101929.78;5033703;28;45413;-75
2023/03/05 08:59:18;;;;;;;;;2.00;2.00;;;;;20.71;34.13;101929.78;5015189;28;46809;-77
2023/03/05 09:01:43;;;;;;;;;1.00;1.00;;;;;20.73;34.72;101930.44;5034017;28;45421;-75
2023/03/05 09:04:08;;;;;;;;;1.00;1.00;;;;;20.73;34.56;101923.34;5030356;28;45838;-74
2023/03/05 09:06:38;;;;;;;;;3.00;2.00;;;;;20.67;34.70;101909.84;5010916;28;45355;-73
2023/03/05 09:09:03;;;;;;;;;3.00;2.00;;;;;20.76;34.91;101916.09;5033456;28;46424;-78
2023/03/05 09:11:28;;;;;;;;;2.25;2.25;;;;;20.76;34.78;101919.59;5015873;28;45356;-81
2023/03/05 09:13:54;;;;;;;;;3.25;1.00;;;;;20.76;35.19;101916.94;5034379;28;45547;-80
2023/03/05 09:16:19;;;;;;;;;4.50;2.75;;;;;20.71;33.16;101913.91;5033905;28;45343;-79
2023/03/05 09:18:45;;;;;;;;;3.00;3.00;;;;;20.62;34.04;101912.94;5027605;28;45399;-76
2023/03/05 09:21:16;;;;;;;;;3.75;3.25;;;;;20.58;34.46;101899.16;5019575;28;45354;-77
2023/03/05 09:23:43;;;;;;;;;2.25;2.00;;;;;20.58;34.96;101899.16;5014292;28;45381;-78
2023/03/05 09:26:14;;;;;;;;;3.00;3.00;;;;;20.59;34.84;101906.13;5022572;28;45438;-76
2023/03/05 09:28:41;;;;;;;;;2.00;2.00;;;;;20.61;34.82;101903.34;5033597;28;46352;-76
2023/03/05 09:31:08;;;;;;;;;3.00;3.00;;;;;20.63;35.38;101898.75;5023282;28;45445;-75
2023/03/05 09:33:34;;;;;;;;;3.00;3.00;;;;;20.65;34.99;101899.44;5025667;28;45300;-77
2023/03/05 09:36:01;;;;;;;;;2.25;2.25;;;;;20.63;35.43;101889.00;5033950;28;45415;-76
2023/03/05 09:38:27;;;;;;;;;2.25;2.25;;;;;20.68;35.35;101900.97;5036728;28;46176;-76
2023/03/05 09:41:14;;;;;;;;;3.00;2.00;;;;;20.70;35.25;101902.47;5037297;28;45412;-76
2023/03/05 09:44:10;;;;;;;;;3.00;3.00;;;;;20.71;35.70;101892.75;5037996;28;45435;-76
2023/03/05 09:46:54;;;;;;;;;3.00;2.00;;;;;20.73;35.83;101893.44;5037814;28;45372;-76
2023/03/05 09:49:46;;;;;;;;;2.00;2.00;;;;;20.74;35.78;101890.63;5037695;28;45288;-78
2023/03/05 09:52:19;;;;;;;;;5.00;3.75;;;;;20.77;35.56;101896.59;5037535;28;45449;-79
2023/03/05 09:54:48;;;;;;;;;3.00;1.75;;;;;20.77;35.61;101894.78;5037330;28;45356;-78
2023/03/05 09:57:22;;;;;;;;;2.00;2.00;;;;;20.79;35.34;101884.09;5019194;28;45383;-81
2023/03/05 09:59:53;;;;;;;;;2.00;2.00;;;;;20.79;35.30;101887.53;5034426;28;46266;-80
2023/03/05 10:02:25;;;;;;;;;3.00;3.00;;;;;20.80;35.38;101883.91;5036367;28;45383;-80
2023/03/05 10:05:19;;;;;;;;;3.75;2.00;;;;;20.81;35.12;101885.59;5036884;28;45296;-77
2023/03/05 10:07:54;;;;;;;;;2.00;2.00;;;;;20.82;35.11;101886.41;5037158;28;45594;-79
2023/03/05 10:10:32;;;;;;;;;3.00;3.00;;;;;20.83;35.09;101870.41;5017819;28;46059;-80
2023/03/05 10:13:04;;;;;;;;;2.75;2.00;;;;;20.84;34.82;101873.91;5031451;28;45396;-80
2023/03/05 10:15:50;;;;;;;;;2.75;2.25;;;;;20.87;35.02;101867.47;5031476;28;45654;-80
2023/03/05 10:18:32;;;;;;;;;2.75;2.00;;;;;20.87;35.19;101868.28;5031170;28;45272;-79
2023/03/05 10:21:02;;;;;;;;;2.00;2.00;;;;;20.90;34.56;101870.63;5034825;28;46361;-80
2023/03/05 10:23:36;;;;;;;;;4.00;2.00;;;;;20.91;34.84;101874.13;5035936;28;45534;-80
2023/03/05 10:26:25;;;;;;;;;3.00;3.00;;;;;20.93;34.81;101874.81;5017220;28;45331;-80
2023/03/05 10:29:18;;;;;;;;;1.00;1.00;;;;;20.94;34.83;101863.25;5034212;28;45527;-81
2023/03/05 10:32:10;;;;;;;;;2.00;2.00;;;;;20.95;34.72;101867.56;5036770;28;46362;-78
2023/03/05 10:35:14;;;;;;;;;2.00;2.00;;;;;20.96;34.81;101861.28;5036949;28;45454;-80
2023/03/05 10:37:54;;;;;;;;;2.00;2.00;;;;;20.97;34.73;101855.03;5036497;28;45416;-77
2023/03/05 10:40:31;;;;;;;;;2.25;2.25;;;;;20.97;34.73;101847.09;5036538;28;45790;-76
2023/03/05 10:43:34;;;;;;;;;2.00;2.00;;;;;20.98;34.46;101839.97;5036145;28;46315;-76
2023/03/05 10:46:02;;;;;;;;;4.25;2.75;;;;;20.94;34.66;101839.44;5034885;28;45374;-75
2023/03/05 10:48:38;;;;;;;;;1.00;1.00;;;;;20.99;34.74;101846.94;5036229;28;45338;-75
2023/03/05 10:51:27;;;;;;;;;3.50;3.50;;;;;20.99;34.40;101839.84;5036355;28;45517;-75
2023/03/05 10:53:57;;;;;;;;;3.00;2.25;;;;;21.00;34.59;101840.66;5034147;28;46317;-76
2023/03/05 10:56:26;;;;;;;;;3.67;2.00;;;;;20.99;34.71;101834.53;5035348;28;45296;-74
2023/03/05 10:58:52;;;;;;;;;3.00;2.50;;;;;21.00;34.55;101836.19;5036802;28;45442;-76
2023/03/05 11:01:21;;;;;;;;;3.00;2.75;;;;;20.99;34.83;101828.41;5036736;28;45224;-75
2023/03/05 11:03:57;;;;;;;;;2.75;2.75;;;;;20.99;34.28;101825.78;5036882;28;47020;-79
2023/03/05 11:06:44;;;;;;;;;2.50;1.00;;;;;20.99;34.54;101831.91;5036667;28;45353;-75
2023/03/05 11:09:15;;;;;;;;;4.50;3.00;;;;;20.97;34.31;101825.94;5036381;28;45324;-73
2023/03/05 11:11:41;;;;;;;;;2.00;2.00;;;;;20.94;34.21;101821.75;5036504;28;45379;-73
2023/03/05 11:14:28;;;;;;;;;3.00;3.00;;;;;20.95;34.18;101828.69;5036399;28;46120;-73
2023/03/05 11:16:54;;;;;;;;;1.25;1.25;;;;;20.92;34.38;101818.41;5036399;28;45392;-73
2023/03/05 11:19:28;;;;;;;;;3.00;1.75;;;;;20.94;34.02;101815.63;5036514;28;45514;-73
2023/03/05 11:22:09;;;;;;;;;2.00;2.00;;;;;20.93;34.21;101817.44;5036041;28;45347;-73
2023/03/05 11:24:36;;;;;;;;;1.75;1.00;;;;;20.91;33.87;101811.47;5036290;28;46130;-73
2023/03/05 11:27:20;;;;;;;;;2.75;2.00;;;;;20.76;33.79;101790.00;5036143;28;45344;-72